Terminal Aerodrome Forecast
Issued by NWS Shreveport, LA

Home | Current Version | Previous Version | Text Only | Print | Product List | Glossary On
Versions: 1 2 3 4 5 6 7 8 9 10 11 12 13 14 15 16
000
FTUS44 KSHV 022300
TAFELD
TAF
KELD 022330Z 0300/0324 02007KT 1SM BR OVC002
      TEMPO 0300/0302 3SM BR OVC004
     FM030400 VRB03KT 1/2SM FG OVC002
      TEMPO 0311/0314 5SM BR BKN010
     FM031400 17005KT P6SM BKN015
      TEMPO 0322/0324 SCT020=

USA.gov is the U.S. government's official web portal to all federal, state and local government web resources and services.